createdAt,value
2018-01-19T00:00:20.173Z,998.98
2018-01-19T00:01:20.204Z,998.96
2018-01-19T00:02:20.482Z,998.95
2018-01-19T00:03:20.262Z,998.99
2018-01-19T00:04:20.292Z,999.02
2018-01-19T00:05:21.382Z,999.06
2018-01-19T00:06:20.353Z,999.05
2018-01-19T00:07:20.384Z,999.07
2018-01-19T00:08:20.419Z,999.08
2018-01-19T00:09:20.754Z,999.10
2018-01-19T00:10:20.482Z,999.14
2018-01-19T00:11:20.506Z,999.11
2018-01-19T00:12:22.575Z,999.21
2018-01-19T00:13:20.568Z,999.21
2018-01-19T00:14:20.599Z,999.18
2018-01-19T00:15:20.632Z,999.18
2018-01-19T00:16:20.909Z,999.18
2018-01-19T00:17:20.690Z,999.15
2018-01-19T00:18:20.722Z,999.13
2018-01-19T00:19:20.754Z,999.14
2018-01-19T00:20:20.780Z,999.20
2018-01-19T00:21:20.816Z,999.14
2018-01-19T00:22:20.844Z,999.16
2018-01-19T00:23:21.178Z,999.19
2018-01-19T00:24:20.906Z,999.20
2018-01-19T00:25:20.936Z,999.24
2018-01-19T00:26:20.962Z,999.19
2018-01-19T00:27:21.012Z,999.17
2018-01-19T00:28:21.029Z,999.20
2018-01-19T00:29:21.910Z,999.27
2018-01-19T00:30:21.090Z,999.26
2018-01-19T00:31:21.118Z,999.27
2018-01-19T00:32:21.147Z,999.24
2018-01-19T00:33:21.177Z,999.26
2018-01-19T00:34:21.208Z,999.22
2018-01-19T00:35:21.243Z,999.26
2018-01-19T00:36:21.519Z,999.24
2018-01-19T00:37:21.305Z,999.24
2018-01-19T00:38:21.330Z,999.27
2018-01-19T00:39:21.360Z,999.26
2018-01-19T00:40:21.394Z,999.21
2018-01-19T00:41:21.424Z,999.27
2018-01-19T00:42:21.699Z,999.20
2018-01-19T00:43:21.489Z,999.21
2018-01-19T00:44:21.527Z,999.24
2018-01-19T00:45:21.546Z,999.19
2018-01-19T00:46:21.573Z,999.20
2018-01-19T00:47:21.619Z,999.21
2018-01-19T00:48:21.883Z,999.26
2018-01-19T00:49:21.669Z,999.26
2018-01-19T00:50:21.694Z,999.30
2018-01-19T00:51:21.722Z,999.26
2018-01-19T00:52:21.755Z,999.28
2018-01-19T00:53:21.789Z,999.27
2018-01-19T00:54:22.067Z,999.27
2018-01-19T00:55:21.845Z,999.26
2018-01-19T00:56:21.876Z,999.26
2018-01-19T00:57:21.908Z,999.32
2018-01-19T00:58:21.942Z,999.30
2018-01-19T00:59:21.966Z,999.32
2018-01-19T01:00:22.002Z,999.34
2018-01-19T01:01:22.291Z,999.35
2018-01-19T01:02:22.068Z,999.35
2018-01-19T01:03:22.097Z,999.40
2018-01-19T01:04:22.133Z,999.45
2018-01-19T01:06:22.182Z,999.42
2018-01-19T01:07:22.207Z,999.43
2018-01-19T01:09:22.271Z,999.50
2018-01-19T01:10:22.301Z,999.53
2018-01-19T01:11:22.741Z,999.59
2018-01-19T01:12:22.367Z,999.53
2018-01-19T01:13:22.391Z,999.56
2018-01-19T01:14:22.420Z,999.61
2018-01-19T01:15:22.762Z,999.68
2018-01-19T01:16:22.481Z,999.68
2018-01-19T01:17:22.512Z,999.68
2018-01-19T01:18:22.552Z,999.67
2018-01-19T01:19:22.581Z,999.69
2018-01-19T01:20:22.609Z,999.65
2018-01-19T01:21:22.647Z,999.63
2018-01-19T01:22:22.913Z,999.64
2018-01-19T01:23:22.692Z,999.64
2018-01-19T01:24:22.727Z,999.64
2018-01-19T01:26:22.786Z,999.66
2018-01-19T01:27:22.816Z,999.66
2018-01-19T01:28:22.850Z,999.65
2018-01-19T01:29:23.127Z,999.63
2018-01-19T01:30:22.916Z,999.58
2018-01-19T01:31:23.295Z,999.63
2018-01-19T01:32:22.969Z,999.60
2018-01-19T01:33:23.001Z,999.67
2018-01-19T01:34:23.028Z,999.63
2018-01-19T01:35:23.058Z,999.63
2018-01-19T01:36:23.541Z,999.63
2018-01-19T01:37:23.121Z,999.71
2018-01-19T01:38:23.149Z,999.68
2018-01-19T01:39:23.180Z,999.67
2018-01-19T01:40:23.209Z,999.65
2018-01-19T01:41:23.242Z,999.68
2018-01-19T01:42:23.271Z,999.66
2018-01-19T01:43:23.563Z,999.67
2018-01-19T01:44:23.537Z,999.65
2018-01-19T01:45:23.736Z,999.67
2018-01-19T01:46:23.393Z,999.70
2018-01-19T01:47:23.798Z,999.68
2018-01-19T01:48:23.453Z,999.73
2018-01-19T01:49:23.480Z,999.69
2018-01-19T01:50:23.760Z,999.68
2018-01-19T01:51:23.542Z,999.69
2018-01-19T01:52:23.578Z,999.72
2018-01-19T01:53:23.599Z,999.72
2018-01-19T01:54:23.636Z,999.71
2018-01-19T01:55:23.667Z,999.69
2018-01-19T01:56:23.695Z,999.72
2018-01-19T01:57:24.020Z,999.68
2018-01-19T01:58:23.757Z,999.70
2018-01-19T01:59:24.785Z,999.68
2018-01-19T02:00:23.823Z,999.70
2018-01-19T02:01:23.841Z,999.70
2018-01-19T02:02:23.949Z,999.67
2018-01-19T02:03:24.205Z,999.67
2018-01-19T02:04:23.931Z,999.69
2018-01-19T02:05:23.963Z,999.68
2018-01-19T02:06:23.994Z,999.65
2018-01-19T02:07:24.024Z,999.71
2018-01-19T02:08:24.052Z,999.69
2018-01-19T02:09:24.339Z,999.66
2018-01-19T02:10:24.117Z,999.65
2018-01-19T02:11:24.152Z,999.67
2018-01-19T02:12:24.175Z,999.67
2018-01-19T02:13:24.238Z,999.74
2018-01-19T02:14:24.231Z,999.72
2018-01-19T02:15:24.512Z,999.77
2018-01-19T02:16:24.294Z,999.78
2018-01-19T02:17:24.322Z,999.70
2018-01-19T02:18:24.430Z,999.72
2018-01-19T02:19:24.383Z,999.73
2018-01-19T02:20:24.417Z,999.67
2018-01-19T02:21:24.693Z,999.67
2018-01-19T02:22:24.493Z,999.73
2018-01-19T02:23:24.502Z,999.73
2018-01-19T02:24:24.534Z,999.64
2018-01-19T02:26:24.592Z,999.64
2018-01-19T02:27:26.122Z,999.70
2018-01-19T02:28:24.901Z,999.67
2018-01-19T02:29:24.685Z,999.73
2018-01-19T02:30:24.723Z,999.73
2018-01-19T02:31:24.751Z,999.69
2018-01-19T02:32:24.772Z,999.72
2018-01-19T02:33:24.813Z,999.69
2018-01-19T02:34:24.857Z,999.69
2018-01-19T02:35:25.217Z,999.78
2018-01-19T02:36:24.897Z,999.74
2018-01-19T02:37:24.923Z,999.72
2018-01-19T02:38:24.954Z,999.77
2018-01-19T02:39:24.982Z,999.81
2018-01-19T02:40:25.014Z,999.83
2018-01-19T02:41:25.040Z,999.78
2018-01-19T02:42:25.321Z,999.82
2018-01-19T02:43:25.104Z,999.80
2018-01-19T02:44:25.130Z,999.83
2018-01-19T02:45:25.162Z,999.84
2018-01-19T02:46:25.206Z,999.82
2018-01-19T02:47:25.225Z,999.90
2018-01-19T02:48:25.258Z,999.91
2018-01-19T02:49:25.539Z,999.91
2018-01-19T02:50:26.973Z,999.94
2018-01-19T02:51:25.348Z,999.92
2018-01-19T02:52:25.375Z,999.92
2018-01-19T02:53:25.402Z,999.98
2018-01-19T02:54:25.437Z,1000.01
2018-01-19T02:55:25.481Z,999.99
2018-01-19T02:56:25.747Z,1000.04
2018-01-19T02:57:25.532Z,1000.03
2018-01-19T02:58:25.559Z,1000.05
2018-01-19T02:59:25.597Z,1000.04
2018-01-19T03:00:25.666Z,1000.13
2018-01-19T03:01:25.646Z,1000.04
2018-01-19T03:02:25.670Z,1000.07
2018-01-19T03:03:25.951Z,1000.07
2018-01-19T03:04:25.737Z,1000.05
2018-01-19T03:05:25.765Z,1000.00
2018-01-19T03:06:25.795Z,1000.00
2018-01-19T03:07:25.825Z,1000.02
2018-01-19T03:08:25.853Z,1000.00
2018-01-19T03:09:25.884Z,1000.03
2018-01-19T03:10:26.168Z,1000.11
2018-01-19T03:11:25.945Z,1000.06
2018-01-19T03:12:25.973Z,1000.10
2018-01-19T03:13:26.066Z,1000.15
2018-01-19T03:14:26.044Z,1000.13
2018-01-19T03:15:26.061Z,1000.12
2018-01-19T03:17:26.119Z,1000.15
2018-01-19T03:18:26.395Z,1000.12
2018-01-19T03:19:26.193Z,1000.12
2018-01-19T03:20:26.211Z,1000.17
2018-01-19T03:21:26.301Z,1000.20
2018-01-19T03:22:26.267Z,1000.19
2018-01-19T03:24:26.349Z,1000.27
2018-01-19T03:25:26.608Z,1000.27
2018-01-19T03:26:26.394Z,1000.33
2018-01-19T03:27:26.414Z,1000.26
2018-01-19T03:28:26.447Z,1000.36
2018-01-19T03:29:26.474Z,1000.29
2018-01-19T03:30:26.540Z,1000.31
2018-01-19T03:31:26.535Z,1000.37
2018-01-19T03:32:26.845Z,1000.38
2018-01-19T03:34:26.630Z,1000.50
2018-01-19T03:35:26.660Z,1000.49
2018-01-19T03:36:26.685Z,1000.45
2018-01-19T03:37:26.715Z,1000.49
2018-01-19T03:38:26.745Z,1000.49
2018-01-19T03:39:27.031Z,1000.52
2018-01-19T03:40:26.849Z,1000.59
2018-01-19T03:41:26.854Z,1000.55
2018-01-19T03:42:26.910Z,1000.60
2018-01-19T03:43:26.901Z,1000.54
2018-01-19T03:44:26.925Z,1000.60
2018-01-19T03:45:26.952Z,1000.54
2018-01-19T03:46:27.241Z,1000.58
2018-01-19T03:47:27.011Z,1000.59
2018-01-19T03:48:27.096Z,1000.63
2018-01-19T03:50:27.104Z,1000.55
2018-01-19T03:51:27.133Z,1000.67
2018-01-19T03:52:27.171Z,1000.63
2018-01-19T03:53:27.441Z,1000.64
2018-01-19T03:54:27.220Z,1000.62
2018-01-19T03:55:27.251Z,1000.66
2018-01-19T03:56:27.280Z,1000.66
2018-01-19T03:57:27.342Z,1000.70
2018-01-19T03:58:27.345Z,1000.64
2018-01-19T03:59:27.381Z,1000.69
2018-01-19T04:00:27.651Z,1000.68
2018-01-19T04:01:27.437Z,1000.67
2018-01-19T04:02:27.465Z,1000.63
2018-01-19T04:03:27.491Z,1000.68
2018-01-19T04:04:27.520Z,1000.60
2018-01-19T04:05:27.548Z,1000.61
2018-01-19T04:06:27.844Z,1000.63
2018-01-19T04:07:27.652Z,1000.69
2018-01-19T04:08:27.650Z,1000.66
2018-01-19T04:09:27.713Z,1000.66
2018-01-19T04:10:27.719Z,1000.69
2018-01-19T04:11:27.743Z,1000.68
2018-01-19T04:12:28.072Z,1000.71
2018-01-19T04:13:27.792Z,1000.75
2018-01-19T04:14:27.849Z,1000.79
2018-01-19T04:15:27.852Z,1000.84
2018-01-19T04:16:27.901Z,1000.86
2018-01-19T04:17:27.929Z,1000.86
2018-01-19T04:18:28.251Z,1000.86
2018-01-19T04:19:27.979Z,1000.84
2018-01-19T04:20:28.002Z,1000.84
2018-01-19T04:21:28.042Z,1000.88
2018-01-19T04:22:28.059Z,1000.85
2018-01-19T04:23:28.125Z,1000.81
2018-01-19T04:24:28.125Z,1000.83
2018-01-19T04:25:28.432Z,1000.86
2018-01-19T04:26:28.181Z,1000.88
2018-01-19T04:27:28.211Z,1000.86
2018-01-19T04:28:28.252Z,1000.87
2018-01-19T04:29:28.269Z,1000.92
2018-01-19T04:30:28.301Z,1000.93
2018-01-19T04:31:28.338Z,1000.93
2018-01-19T04:32:28.610Z,1000.93
2018-01-19T04:33:28.398Z,1000.97
2018-01-19T04:34:28.424Z,1000.97
2018-01-19T04:35:28.472Z,1000.97
2018-01-19T04:36:28.481Z,1000.97
2018-01-19T04:37:28.512Z,1000.98
2018-01-19T04:38:28.539Z,1001.01
2018-01-19T04:39:28.926Z,1001.05
2018-01-19T04:40:28.602Z,1001.02
2018-01-19T04:41:28.662Z,1001.02
2018-01-19T04:42:28.659Z,1001.10
2018-01-19T04:43:28.686Z,1001.05
2018-01-19T04:44:28.724Z,1001.09
2018-01-19T04:45:28.749Z,1001.08
2018-01-19T04:46:28.777Z,1001.09
2018-01-19T04:47:28.807Z,1001.11
2018-01-19T04:48:28.837Z,1001.08
2018-01-19T04:49:28.986Z,1001.12
2018-01-19T04:50:28.903Z,1001.15
2018-01-19T04:51:28.929Z,1001.13
2018-01-19T04:52:29.262Z,1001.12
2018-01-19T04:53:28.990Z,1001.19
2018-01-19T04:54:29.019Z,1001.16
2018-01-19T04:55:29.051Z,1001.21
2018-01-19T04:56:29.078Z,1001.20
2018-01-19T04:57:29.110Z,1001.19
2018-01-19T04:58:29.188Z,1001.22
2018-01-19T04:59:29.444Z,1001.25
2018-01-19T05:00:29.206Z,1001.21
2018-01-19T05:01:29.223Z,1001.29
2018-01-19T05:02:29.255Z,1001.23
2018-01-19T05:03:29.288Z,1001.26
2018-01-19T05:04:29.351Z,1001.26
2018-01-19T05:05:29.349Z,1001.28
2018-01-19T05:06:29.701Z,1001.24
2018-01-19T05:07:29.450Z,1001.27
2018-01-19T05:08:29.436Z,1001.29
2018-01-19T05:09:29.469Z,1001.32
2018-01-19T05:10:29.516Z,1001.36
2018-01-19T05:11:29.526Z,1001.35
2018-01-19T05:12:29.554Z,1001.38
2018-01-19T05:13:29.841Z,1001.37
2018-01-19T05:14:29.614Z,1001.40
2018-01-19T05:15:29.654Z,1001.40
2018-01-19T05:16:29.676Z,1001.45
2018-01-19T05:17:29.703Z,1001.38
2018-01-19T05:18:29.742Z,1001.43
2018-01-19T05:19:29.877Z,1001.45
2018-01-19T05:20:30.044Z,1001.42
2018-01-19T05:21:29.828Z,1001.44
2018-01-19T05:22:29.856Z,1001.45
2018-01-19T05:23:29.915Z,1001.46
2018-01-19T05:24:29.982Z,1001.49
2018-01-19T05:25:29.943Z,1001.48
2018-01-19T05:26:29.972Z,1001.53
2018-01-19T05:27:30.252Z,1001.47
2018-01-19T05:28:30.054Z,1001.50
2018-01-19T05:29:30.064Z,1001.52
2018-01-19T05:30:30.095Z,1001.54
2018-01-19T05:31:30.124Z,1001.50
2018-01-19T05:32:30.154Z,1001.48
2018-01-19T05:33:31.228Z,1001.52
2018-01-19T05:34:30.207Z,1001.54
2018-01-19T05:35:30.244Z,1001.53
2018-01-19T05:36:30.285Z,1001.49
2018-01-19T05:37:30.307Z,1001.49
2018-01-19T05:38:30.328Z,1001.54
2018-01-19T05:40:30.396Z,1001.56
2018-01-19T05:41:30.417Z,1001.57
2018-01-19T05:42:30.447Z,1001.58
2018-01-19T05:43:30.528Z,1001.55
2018-01-19T05:44:30.535Z,1001.61
2018-01-19T05:45:30.789Z,1001.62
2018-01-19T05:46:30.578Z,1001.70
2018-01-19T05:47:30.599Z,1001.72
2018-01-19T05:48:30.636Z,1001.70
2018-01-19T05:49:30.661Z,1001.74
2018-01-19T05:50:30.688Z,1001.76
2018-01-19T05:51:30.748Z,1001.76
2018-01-19T05:52:31.019Z,1001.86
2018-01-19T05:53:30.781Z,1001.85
2018-01-19T05:54:30.885Z,1001.86
2018-01-19T05:55:30.836Z,1001.87
2018-01-19T05:56:30.870Z,1001.86
2018-01-19T05:57:30.894Z,1001.86
2018-01-19T05:58:31.148Z,1001.94
2018-01-19T05:59:31.279Z,1001.93
2018-01-19T06:00:30.994Z,1001.92
2018-01-19T06:01:31.024Z,1001.95
2018-01-19T06:02:31.044Z,1001.94
2018-01-19T06:03:31.077Z,1001.96
2018-01-19T06:04:31.104Z,1001.88
2018-01-19T06:05:31.134Z,1001.94
2018-01-19T06:06:31.431Z,1001.94
2018-01-19T06:07:31.192Z,1001.98
2018-01-19T06:08:31.228Z,1002.00
2018-01-19T06:09:31.260Z,1002.00
2018-01-19T06:10:31.288Z,1002.07
2018-01-19T06:11:31.312Z,1002.04
2018-01-19T06:12:31.342Z,1002.04
2018-01-19T06:13:31.509Z,1002.10
2018-01-19T06:14:31.404Z,1002.07
2018-01-19T06:15:31.431Z,1002.12
2018-01-19T06:16:31.574Z,1002.05
2018-01-19T06:17:31.490Z,1002.04
2018-01-19T06:18:31.562Z,1002.13
2018-01-19T06:19:31.841Z,1002.14
2018-01-19T06:20:31.585Z,1002.15
2018-01-19T06:21:31.614Z,1002.15
2018-01-19T06:22:31.638Z,1002.17
2018-01-19T06:23:31.669Z,1002.22
2018-01-19T06:24:31.701Z,1002.23
2018-01-19T06:25:31.733Z,1002.27
2018-01-19T06:26:32.011Z,1002.23
2018-01-19T06:27:31.795Z,1002.28
2018-01-19T06:28:31.818Z,1002.33
2018-01-19T06:29:31.854Z,1002.36
2018-01-19T06:30:31.879Z,1002.30
2018-01-19T06:31:31.927Z,1002.27
2018-01-19T06:32:31.939Z,1002.27
2018-01-19T06:33:32.217Z,1002.30
2018-01-19T06:34:32.004Z,1002.39
2018-01-19T06:35:32.071Z,1002.41
2018-01-19T06:36:32.060Z,1002.40
2018-01-19T06:37:32.100Z,1002.52
2018-01-19T06:38:32.147Z,1002.44
2018-01-19T06:39:32.147Z,1002.48
2018-01-19T06:40:32.428Z,1002.46
2018-01-19T06:41:32.204Z,1002.48
2018-01-19T06:42:32.260Z,1002.58
2018-01-19T06:43:32.286Z,1002.52
2018-01-19T06:44:32.296Z,1002.61
2018-01-19T06:45:32.326Z,1002.59
2018-01-19T06:46:32.353Z,1002.63
2018-01-19T06:47:32.651Z,1002.65
2018-01-19T06:48:32.420Z,1002.68
2018-01-19T06:49:32.469Z,1002.66
2018-01-19T06:50:32.471Z,1002.67
2018-01-19T06:51:32.503Z,1002.68
2018-01-19T06:52:32.536Z,1002.74
2018-01-19T06:53:32.812Z,1002.76
2018-01-19T06:54:32.594Z,1002.77
2018-01-19T06:55:32.621Z,1002.81
2018-01-19T06:56:32.655Z,1002.81
2018-01-19T06:57:32.684Z,1002.79
2018-01-19T06:58:32.725Z,1002.80
2018-01-19T06:59:33.044Z,1002.90
2018-01-19T07:00:32.768Z,1002.84
2018-01-19T07:01:32.807Z,1002.91
2018-01-19T07:02:32.829Z,1002.86
2018-01-19T07:03:32.861Z,1002.93
2018-01-19T07:04:32.891Z,1002.87
2018-01-19T07:05:33.173Z,1002.89
2018-01-19T07:06:32.954Z,1003.00
2018-01-19T07:07:33.179Z,1003.03
2018-01-19T07:08:33.007Z,1003.07
2018-01-19T07:09:33.038Z,1003.11
2018-01-19T07:10:33.067Z,1003.10
2018-01-19T07:11:33.100Z,1003.08
2018-01-19T07:12:33.428Z,1003.12
2018-01-19T07:13:33.154Z,1003.11
2018-01-19T07:14:33.188Z,1003.15
2018-01-19T07:15:33.218Z,1003.12
2018-01-19T07:16:33.243Z,1003.13
2018-01-19T07:17:33.277Z,1003.14
2018-01-19T07:18:33.304Z,1003.15
2018-01-19T07:19:33.590Z,1003.21
2018-01-19T07:20:33.372Z,1003.24
2018-01-19T07:21:33.393Z,1003.27
2018-01-19T07:22:33.427Z,1003.27
2018-01-19T07:23:33.454Z,1003.28
2018-01-19T07:24:33.485Z,1003.29
2018-01-19T07:25:33.520Z,1003.30
2018-01-19T07:26:33.841Z,1003.29
2018-01-19T07:27:33.583Z,1003.36
2018-01-19T07:28:33.598Z,1003.36
2018-01-19T07:29:33.629Z,1003.42
2018-01-19T07:30:33.658Z,1003.37
2018-01-19T07:32:33.971Z,1003.50
2018-01-19T07:33:33.780Z,1003.50
2018-01-19T07:34:33.778Z,1003.51
2018-01-19T07:35:33.810Z,1003.55
2018-01-19T07:36:33.852Z,1003.57
2018-01-19T07:37:33.866Z,1003.59
2018-01-19T07:38:33.898Z,1003.56
2018-01-19T07:39:34.227Z,1003.61
2018-01-19T07:41:33.987Z,1003.68
2018-01-19T07:42:34.015Z,1003.75
2018-01-19T07:44:34.077Z,1003.71
2018-01-19T07:45:34.115Z,1003.77
2018-01-19T07:46:34.381Z,1003.76
2018-01-19T07:47:34.164Z,1003.76
2018-01-19T07:48:34.211Z,1003.82
2018-01-19T07:49:34.231Z,1003.84
2018-01-19T07:50:34.263Z,1003.85
2018-01-19T07:51:34.283Z,1003.84
2018-01-19T07:52:34.321Z,1003.84
2018-01-19T07:53:34.588Z,1003.88
2018-01-19T07:54:34.379Z,1003.90
2018-01-19T07:55:34.431Z,1003.88
2018-01-19T07:56:34.433Z,1003.92
2018-01-19T07:57:34.466Z,1003.97
2018-01-19T07:58:34.488Z,1004.02
2018-01-19T07:59:34.533Z,1004.01
2018-01-19T08:00:34.800Z,1004.03
2018-01-19T08:01:34.578Z,1004.02
2018-01-19T08:02:34.626Z,1004.02
2018-01-19T08:03:34.641Z,1004.02
2018-01-19T08:04:34.696Z,1004.03
2018-01-19T08:05:34.696Z,1004.04
2018-01-19T08:06:34.727Z,1004.03
2018-01-19T08:07:35.064Z,1003.99
2018-01-19T08:08:34.784Z,1004.08
2018-01-19T08:09:34.820Z,1004.04
2018-01-19T08:10:34.851Z,1004.04
2018-01-19T08:11:34.879Z,1004.06
2018-01-19T08:12:34.913Z,1004.06
2018-01-19T08:13:34.935Z,1004.07
2018-01-19T08:14:35.232Z,1004.13
2018-01-19T08:16:35.027Z,1004.13
2018-01-19T08:17:35.051Z,1004.14
2018-01-19T08:18:35.095Z,1004.20
2018-01-19T08:19:35.125Z,1004.17
2018-01-19T08:20:35.440Z,1004.20
2018-01-19T08:21:35.184Z,1004.19
2018-01-19T08:22:35.203Z,1004.25
2018-01-19T08:23:35.232Z,1004.30
2018-01-19T08:24:35.261Z,1004.27
2018-01-19T08:25:35.291Z,1004.32
2018-01-19T08:26:35.568Z,1004.36
2018-01-19T08:27:35.352Z,1004.39
2018-01-19T08:28:35.381Z,1004.38
2018-01-19T08:29:35.412Z,1004.36
2018-01-19T08:30:35.439Z,1004.40
2018-01-19T08:31:35.473Z,1004.41
2018-01-19T08:32:35.746Z,1004.42
2018-01-19T08:33:35.532Z,1004.44
2018-01-19T08:34:35.559Z,1004.39
2018-01-19T08:35:35.592Z,1004.45
2018-01-19T08:36:35.625Z,1004.48
2018-01-19T08:37:35.651Z,1004.46
2018-01-19T08:38:35.676Z,1004.52
2018-01-19T08:39:35.955Z,1004.51
2018-01-19T08:40:35.741Z,1004.56
2018-01-19T08:41:35.762Z,1004.56
2018-01-19T08:42:35.793Z,1004.60
2018-01-19T08:43:35.822Z,1004.56
2018-01-19T08:44:35.853Z,1004.58
2018-01-19T08:45:35.888Z,1004.60
2018-01-19T08:46:36.213Z,1004.64
2018-01-19T08:47:36.167Z,1004.62
2018-01-19T08:48:35.972Z,1004.61
2018-01-19T08:49:36.004Z,1004.65
2018-01-19T08:50:36.047Z,1004.60
2018-01-19T08:51:36.059Z,1004.64
2018-01-19T08:52:36.091Z,1004.67
2018-01-19T08:53:36.374Z,1004.62
2018-01-19T08:54:36.178Z,1004.68
2018-01-19T08:55:36.187Z,1004.66
2018-01-19T08:56:36.228Z,1004.68
2018-01-19T08:57:36.245Z,1004.67
2018-01-19T08:58:36.280Z,1004.69
2018-01-19T08:59:36.305Z,1004.68
2018-01-19T09:00:36.631Z,1004.66
2018-01-19T09:01:36.362Z,1004.76
2018-01-19T09:02:36.407Z,1004.71
2018-01-19T09:03:36.430Z,1004.73
2018-01-19T09:04:36.451Z,1004.71
2018-01-19T09:05:36.479Z,1004.74
2018-01-19T09:06:36.507Z,1004.72
2018-01-19T09:07:36.842Z,1004.75
2018-01-19T09:08:36.568Z,1004.75
2018-01-19T09:09:36.595Z,1004.72
2018-01-19T09:10:36.932Z,1004.73
2018-01-19T09:11:36.675Z,1004.72
2018-01-19T09:12:36.691Z,1004.76
2018-01-19T09:13:36.718Z,1004.75
2018-01-19T09:14:37.053Z,1004.74
2018-01-19T09:15:36.774Z,1004.77
2018-01-19T09:16:36.809Z,1004.75
2018-01-19T09:17:36.843Z,1004.76
2018-01-19T09:18:36.925Z,1004.74
2018-01-19T09:19:36.894Z,1004.76
2018-01-19T09:20:36.943Z,1004.70
2018-01-19T09:21:37.203Z,1004.70
2018-01-19T09:22:36.982Z,1004.73
2018-01-19T09:23:37.016Z,1004.76
2018-01-19T09:24:37.065Z,1004.78
2018-01-19T09:25:37.076Z,1004.78
2018-01-19T09:27:37.385Z,1004.73
2018-01-19T09:28:37.167Z,1004.73
2018-01-19T09:29:37.202Z,1004.73
2018-01-19T09:30:37.221Z,1004.77
2018-01-19T09:31:37.251Z,1004.76
2018-01-19T09:32:37.281Z,1004.80
2018-01-19T09:33:37.327Z,1004.79
2018-01-19T09:34:37.590Z,1004.82
2018-01-19T09:35:37.372Z,1004.84
2018-01-19T09:36:37.403Z,1004.85
2018-01-19T09:37:37.443Z,1004.86
2018-01-19T09:38:37.471Z,1004.90
2018-01-19T09:40:37.822Z,1004.95
2018-01-19T09:41:37.549Z,1004.92
2018-01-19T09:42:37.592Z,1004.97
2018-01-19T09:43:37.617Z,1004.95
2018-01-19T09:44:37.641Z,1004.99
2018-01-19T09:45:37.670Z,1005.00
2018-01-19T09:46:37.952Z,1004.96
2018-01-19T09:47:37.734Z,1005.01
2018-01-19T09:48:37.764Z,1004.95
2018-01-19T09:49:37.813Z,1004.98
2018-01-19T09:50:37.822Z,1004.98
2018-01-19T09:51:37.891Z,1005.01
2018-01-19T09:53:37.926Z,1005.01
2018-01-19T09:54:37.961Z,1005.04
2018-01-19T09:56:38.032Z,1005.04
2018-01-19T09:57:38.049Z,1005.09
2018-01-19T09:58:38.099Z,1005.10
2018-01-19T09:59:38.374Z,1005.15
2018-01-19T10:00:38.138Z,1005.13
2018-01-19T10:01:38.182Z,1005.20
2018-01-19T10:02:38.196Z,1005.19
2018-01-19T10:03:38.226Z,1005.22
2018-01-19T10:04:38.276Z,1005.19
2018-01-19T10:05:38.289Z,1005.26
2018-01-19T10:06:38.638Z,1005.26
2018-01-19T10:07:38.363Z,1005.22
2018-01-19T10:08:38.376Z,1005.32
2018-01-19T10:09:38.423Z,1005.30
2018-01-19T10:10:38.435Z,1005.35
2018-01-19T10:11:38.487Z,1005.32
2018-01-19T10:12:38.530Z,1005.37
2018-01-19T10:13:38.857Z,1005.36
2018-01-19T10:14:38.640Z,1005.30
2018-01-19T10:16:38.700Z,1005.42
2018-01-19T10:17:38.676Z,1005.41
2018-01-19T10:18:38.716Z,1005.45
2018-01-19T10:19:38.738Z,1005.42
2018-01-19T10:20:39.124Z,1005.44
2018-01-19T10:21:38.797Z,1005.42
2018-01-19T10:22:38.810Z,1005.41
2018-01-19T10:23:39.060Z,1005.42
2018-01-19T10:24:40.164Z,1005.42
2018-01-19T10:26:39.215Z,1005.47
2018-01-19T10:27:38.959Z,1005.50
2018-01-19T10:28:39.174Z,1005.48
2018-01-19T10:29:39.007Z,1005.54
2018-01-19T10:30:39.048Z,1005.53
2018-01-19T10:32:39.395Z,1005.55
2018-01-19T10:34:39.181Z,1005.58
2018-01-19T10:35:39.208Z,1005.55
2018-01-19T10:36:40.421Z,1005.57
2018-01-19T10:37:39.330Z,1005.55
2018-01-19T10:38:39.578Z,1005.62
2018-01-19T10:39:39.316Z,1005.60
2018-01-19T10:41:39.377Z,1005.61
2018-01-19T10:42:39.621Z,1005.61
2018-01-19T10:43:39.433Z,1005.58
2018-01-19T10:44:39.712Z,1005.58
2018-01-19T10:45:39.681Z,1005.61
2018-01-19T10:46:39.510Z,1005.65
2018-01-19T10:47:39.528Z,1005.59
2018-01-19T10:48:39.564Z,1005.61
2018-01-19T10:49:39.588Z,1005.61
2018-01-19T10:51:39.897Z,1005.60
2018-01-19T10:52:41.092Z,1005.57
2018-01-19T10:53:39.706Z,1005.63
2018-01-19T10:54:39.732Z,1005.54
2018-01-19T10:55:39.765Z,1005.57
2018-01-19T10:56:39.797Z,1005.57
2018-01-19T10:57:40.131Z,1005.62
2018-01-19T10:58:39.856Z,1005.63
2018-01-19T10:59:39.882Z,1005.61
2018-01-19T11:00:39.917Z,1005.65
2018-01-19T11:01:40.154Z,1005.66
2018-01-19T11:02:40.177Z,1005.66
2018-01-19T11:03:40.911Z,1005.66
2018-01-19T11:04:40.033Z,1005.62
2018-01-19T11:05:40.268Z,1005.59
2018-01-19T11:06:40.700Z,1005.65
2018-01-19T11:07:40.125Z,1005.65
2018-01-19T11:09:40.637Z,1005.65
2018-01-19T11:10:40.215Z,1005.68
2018-01-19T11:11:40.446Z,1005.67
2018-01-19T11:12:40.282Z,1005.66
2018-01-19T11:13:40.597Z,1005.68
2018-01-19T11:14:40.342Z,1005.65
2018-01-19T11:17:40.679Z,1005.61
2018-01-19T11:18:40.454Z,1005.63
2018-01-19T11:19:40.486Z,1005.56
2018-01-19T11:20:40.517Z,1005.53
2018-01-19T11:24:41.098Z,1005.54
2018-01-19T11:25:40.673Z,1005.51
2018-01-19T11:26:40.704Z,1005.46
2018-01-19T11:27:40.730Z,1005.46
2018-01-19T11:28:40.760Z,1005.43
2018-01-19T11:29:41.828Z,1005.48
2018-01-19T11:30:41.267Z,1005.45
2018-01-19T11:31:41.049Z,1005.44
2018-01-19T11:33:53.645Z,1005.39
2018-01-19T11:34:40.946Z,1005.47
2018-01-19T11:37:47.546Z,1005.45
2018-01-19T11:38:41.058Z,1005.43
2018-01-19T11:39:41.092Z,1005.41
2018-01-19T11:42:41.831Z,1005.47
2018-01-19T11:43:41.423Z,1005.44
2018-01-19T11:45:41.528Z,1005.44
2018-01-19T11:51:41.750Z,1005.45
2018-01-19T11:52:42.912Z,1005.42
2018-01-19T11:53:41.512Z,1005.47
2018-01-19T11:55:42.185Z,1005.45
2018-01-19T12:02:48.352Z,1005.32
2018-01-19T12:04:41.843Z,1005.37
2018-01-19T12:05:43.290Z,1005.32
2018-01-19T12:06:48.180Z,1005.35
2018-01-19T12:07:42.151Z,1005.35
2018-01-19T12:08:42.273Z,1005.33
2018-01-19T12:09:48.317Z,1005.35
2018-01-19T12:10:42.024Z,1005.33
2018-01-19T12:11:42.058Z,1005.31
2018-01-19T12:15:43.040Z,1005.27
2018-01-19T12:16:42.428Z,1005.25
2018-01-19T12:17:43.649Z,1005.20
2018-01-19T12:19:42.903Z,1005.15
2018-01-19T12:20:42.337Z,1005.18
2018-01-19T12:21:42.617Z,1005.16
2018-01-19T12:22:42.437Z,1005.15
2018-01-19T12:23:43.031Z,1005.15
2018-01-19T12:24:43.072Z,1005.15
2018-01-19T12:25:42.484Z,1005.18
2018-01-19T12:26:42.710Z,1005.22
2018-01-19T12:27:42.746Z,1005.17
2018-01-19T12:28:43.070Z,1005.18
2018-01-19T12:30:42.628Z,1005.16
2018-01-19T12:35:43.034Z,1005.17
2018-01-19T12:36:42.817Z,1005.15
2018-01-19T12:37:42.842Z,1005.16
2018-01-19T12:41:43.415Z,1005.13
2018-01-19T12:42:42.992Z,1005.12
2018-01-19T12:43:43.225Z,1005.09
2018-01-19T12:44:43.267Z,1005.10
2018-01-19T12:45:43.295Z,1005.11
2018-01-19T12:46:43.112Z,1005.05
2018-01-19T12:47:43.161Z,1005.11
2018-01-19T12:48:43.480Z,1005.04
2018-01-19T12:49:43.203Z,1005.07
2018-01-19T12:50:43.236Z,1005.04
2018-01-19T12:52:43.299Z,1004.99
2018-01-19T12:55:43.719Z,1005.03
2018-01-19T12:56:44.024Z,1005.03
2018-01-19T12:57:43.446Z,1005.07
2018-01-19T12:59:43.521Z,1005.03
2018-01-19T13:02:43.932Z,1005.04
2018-01-19T13:03:43.627Z,1005.03
2018-01-19T13:04:44.264Z,1005.05
2018-01-19T13:05:43.690Z,1005.02
2018-01-19T13:07:43.773Z,1004.97
2018-01-19T13:08:43.776Z,1005.04
2018-01-19T13:11:44.332Z,1004.97
2018-01-19T13:13:43.986Z,1004.94
2018-01-19T13:15:44.197Z,1004.99
2018-01-19T13:16:44.062Z,1005.00
2018-01-19T13:17:44.269Z,1005.05
2018-01-19T13:20:44.391Z,1005.03
2018-01-19T13:22:44.201Z,1005.09
2018-01-19T13:29:44.868Z,1005.10
2018-01-19T13:30:44.447Z,1005.08